Alpha, Washington
Current Conditions -  °F | °C
As of 8:35 AM on Saturday 20 Dec 2014 (Local Time) from KCLS Reporting Station
Overcast Overcast  
Wind Chill: 43°   Ceiling: 1300
Heat Index: 46°   Visibility: 10mi
Dew Point: 46°   Wind: 7mph
Humidity: 100%   Direction: 200°SSW
Pressure: 29.62"   Gusts: 13mph
Location:  46.5995°N, 122.665°W
Report Text: KCLS 201635Z AUTO 20006G11KT 10SM OVC013 08/08 A2962 RMK AO2
Loading
Personal Weather Stations






























Interactive Weather Map New forecast layout! Learn more

10-Day Weather Forecast

Advertisements
Track Severe Weather on mobile